createdAt,value
2018-12-26T00:00:23.122Z,5.10
2018-12-26T00:01:26.819Z,5.10
2018-12-26T00:02:30.442Z,5.10
2018-12-26T00:03:34.094Z,5.10
2018-12-26T00:04:37.640Z,5.10
2018-12-26T00:05:41.331Z,5.10
2018-12-26T00:06:44.862Z,5.00
2018-12-26T00:07:48.445Z,5.00
2018-12-26T00:08:51.994Z,5.00
2018-12-26T00:09:55.538Z,5.00
2018-12-26T00:10:59.127Z,5.00
2018-12-26T00:12:02.671Z,5.00
2018-12-26T00:13:06.210Z,5.00
2018-12-26T00:14:09.757Z,5.00
2018-12-26T00:15:13.310Z,5.00
2018-12-26T00:16:16.907Z,5.00
2018-12-26T00:17:20.463Z,5.00
2018-12-26T00:18:24.113Z,5.00
2018-12-26T00:19:27.671Z,5.00
2018-12-26T00:20:31.198Z,5.00
2018-12-26T00:21:34.786Z,4.90
2018-12-26T00:22:38.325Z,4.90
2018-12-26T00:23:41.794Z,4.90
2018-12-26T00:24:45.266Z,4.90
2018-12-26T00:25:48.813Z,4.90
2018-12-26T00:26:52.314Z,4.90
2018-12-26T00:27:55.918Z,4.90
2018-12-26T00:28:59.462Z,5.00
2018-12-26T00:30:03.006Z,4.90
2018-12-26T00:31:06.553Z,4.90
2018-12-26T00:32:10.023Z,5.00
2018-12-26T00:33:13.617Z,4.90
2018-12-26T00:34:17.166Z,5.00
2018-12-26T00:35:20.719Z,4.90
2018-12-26T00:36:24.278Z,4.90
2018-12-26T00:37:27.829Z,4.90
2018-12-26T00:38:31.420Z,4.90
2018-12-26T00:39:34.972Z,4.90
2018-12-26T00:40:38.514Z,4.90
2018-12-26T00:41:42.054Z,4.80
2018-12-26T00:42:45.530Z,4.80
2018-12-26T00:43:49.215Z,4.80
2018-12-26T00:44:52.754Z,4.80
2018-12-26T00:45:56.302Z,4.80
2018-12-26T00:46:59.776Z,4.80
2018-12-26T00:48:03.318Z,4.80
2018-12-26T00:49:06.823Z,4.80
2018-12-26T00:50:10.367Z,4.80
2018-12-26T00:51:13.913Z,4.80
2018-12-26T00:52:17.499Z,4.70
2018-12-26T00:53:21.063Z,4.70
2018-12-26T00:54:24.605Z,4.80
2018-12-26T00:55:28.150Z,4.80
2018-12-26T00:56:31.694Z,4.80
2018-12-26T00:57:35.285Z,4.80
2018-12-26T00:58:38.831Z,4.80
2018-12-26T00:59:42.378Z,4.80
2018-12-26T01:00:45.934Z,4.80
2018-12-26T01:01:49.480Z,4.80
2018-12-26T01:02:53.061Z,4.80
2018-12-26T01:03:56.638Z,4.80
2018-12-26T01:05:00.167Z,4.80
2018-12-26T01:06:03.705Z,4.80
2018-12-26T01:07:07.226Z,4.80
2018-12-26T01:08:10.766Z,4.80
2018-12-26T01:09:14.319Z,4.80
2018-12-26T01:10:17.862Z,4.80
2018-12-26T01:11:21.330Z,4.80
2018-12-26T01:12:24.922Z,4.70
2018-12-26T01:13:28.465Z,4.70
2018-12-26T01:14:31.933Z,4.70
2018-12-26T01:15:35.402Z,4.70
2018-12-26T01:16:38.874Z,4.80
2018-12-26T01:17:42.463Z,4.80
2018-12-26T01:18:46.005Z,4.70
2018-12-26T01:19:49.475Z,4.70
2018-12-26T01:20:53.018Z,4.70
2018-12-26T01:21:56.487Z,4.70
2018-12-26T01:23:00.075Z,4.70
2018-12-26T01:24:03.626Z,4.70
2018-12-26T01:25:07.251Z,4.70
2018-12-26T01:26:18.947Z,4.70
2018-12-26T01:27:15.998Z,4.70
2018-12-26T01:28:19.569Z,4.70
2018-12-26T01:29:23.122Z,4.70
2018-12-26T01:30:26.594Z,4.70
2018-12-26T01:31:30.138Z,4.70
2018-12-26T01:32:33.692Z,4.70
2018-12-26T01:33:37.274Z,4.70
2018-12-26T01:34:40.821Z,4.70
2018-12-26T01:35:44.376Z,4.70
2018-12-26T01:36:47.918Z,4.70
2018-12-26T01:37:51.465Z,4.70
2018-12-26T01:38:54.982Z,4.70
2018-12-26T01:39:58.528Z,4.70
2018-12-26T01:41:02.078Z,4.70
2018-12-26T01:42:05.634Z,4.70
2018-12-26T01:43:09.173Z,4.70
2018-12-26T01:44:12.754Z,4.70
2018-12-26T01:45:16.302Z,4.70
2018-12-26T01:46:19.777Z,4.70
2018-12-26T01:47:23.322Z,4.70
2018-12-26T01:48:26.795Z,4.70
2018-12-26T01:49:30.382Z,4.70
2018-12-26T01:50:33.926Z,4.70
2018-12-26T01:51:37.471Z,4.80
2018-12-26T01:52:41.021Z,4.70
2018-12-26T01:53:44.562Z,4.70
2018-12-26T01:54:48.145Z,4.60
2018-12-26T01:55:51.689Z,4.60
2018-12-26T01:56:55.238Z,4.70
2018-12-26T01:57:58.783Z,4.60
2018-12-26T01:59:02.328Z,4.70
2018-12-26T02:00:07.561Z,4.70
2018-12-26T02:01:11.098Z,4.70
2018-12-26T02:02:14.566Z,4.70
2018-12-26T02:03:18.384Z,4.70
2018-12-26T02:04:21.926Z,4.70
2018-12-26T02:05:25.474Z,4.70
2018-12-26T02:06:29.019Z,4.60
2018-12-26T02:07:32.567Z,4.60
2018-12-26T02:08:36.158Z,4.60
2018-12-26T02:09:39.626Z,4.70
2018-12-26T02:10:43.179Z,4.70
2018-12-26T02:11:46.728Z,4.70
2018-12-26T02:12:50.269Z,4.70
2018-12-26T02:13:53.789Z,4.70
2018-12-26T02:14:57.338Z,4.70
2018-12-26T02:16:00.886Z,4.70
2018-12-26T02:17:04.431Z,4.70
2018-12-26T02:18:07.974Z,4.60
2018-12-26T02:19:11.558Z,4.60
2018-12-26T02:20:15.032Z,4.60
2018-12-26T02:21:18.682Z,4.60
2018-12-26T02:22:22.241Z,4.70
2018-12-26T02:23:25.858Z,4.70
2018-12-26T02:24:29.402Z,4.70
2018-12-26T02:25:33.222Z,4.70
2018-12-26T02:26:36.810Z,4.70
2018-12-26T02:27:40.355Z,4.70
2018-12-26T02:28:43.822Z,4.70
2018-12-26T02:29:47.303Z,4.70
2018-12-26T02:30:50.846Z,4.70
2018-12-26T02:31:54.357Z,4.60
2018-12-26T02:32:57.830Z,4.60
2018-12-26T02:34:01.311Z,4.60
2018-12-26T02:35:05.014Z,4.60
2018-12-26T02:36:08.555Z,4.60
2018-12-26T02:37:12.146Z,4.50
2018-12-26T02:38:15.693Z,4.50
2018-12-26T02:39:19.163Z,4.50
2018-12-26T02:40:22.711Z,4.50
2018-12-26T02:41:26.258Z,4.50
2018-12-26T02:42:29.850Z,4.50
2018-12-26T02:43:33.398Z,4.50
2018-12-26T02:44:36.872Z,4.40
2018-12-26T02:45:40.415Z,4.40
2018-12-26T02:46:43.959Z,4.40
2018-12-26T02:47:47.546Z,4.40
2018-12-26T02:48:51.018Z,4.40
2018-12-26T02:49:54.569Z,4.40
2018-12-26T02:50:58.255Z,4.30
2018-12-26T02:52:01.803Z,4.20
2018-12-26T02:53:05.389Z,4.30
2018-12-26T02:54:08.932Z,4.30
2018-12-26T02:55:12.480Z,4.20
2018-12-26T02:56:16.036Z,4.20
2018-12-26T02:57:19.574Z,4.30
2018-12-26T02:58:23.167Z,4.30
2018-12-26T02:59:26.711Z,4.30
2018-12-26T03:00:30.258Z,4.30
2018-12-26T03:01:33.802Z,4.30
2018-12-26T03:02:37.354Z,4.30
2018-12-26T03:03:41.318Z,4.30
2018-12-26T03:04:44.853Z,4.30
2018-12-26T03:05:48.398Z,4.30
2018-12-26T03:06:51.946Z,4.30
2018-12-26T03:07:55.486Z,4.30
2018-12-26T03:08:59.007Z,4.20
2018-12-26T03:10:02.549Z,4.20
2018-12-26T03:11:06.095Z,4.30
2018-12-26T03:12:09.561Z,4.20
2018-12-26T03:13:13.120Z,4.20
2018-12-26T03:14:16.710Z,4.20
2018-12-26T03:15:20.271Z,4.10
2018-12-26T03:16:23.892Z,4.20
2018-12-26T03:17:27.480Z,4.20
2018-12-26T03:18:31.024Z,4.20
2018-12-26T03:19:34.564Z,4.20
2018-12-26T03:20:38.166Z,4.20
2018-12-26T03:21:41.652Z,4.20
2018-12-26T03:22:45.335Z,4.20
2018-12-26T03:23:48.878Z,4.20
2018-12-26T03:24:52.471Z,4.10
2018-12-26T03:25:56.014Z,4.20
2018-12-26T03:26:59.565Z,4.20
2018-12-26T03:28:03.103Z,4.20
2018-12-26T03:29:06.648Z,4.20
2018-12-26T03:30:10.283Z,4.20
2018-12-26T03:31:13.836Z,4.20
2018-12-26T03:32:17.364Z,4.20
2018-12-26T03:33:20.909Z,4.20
2018-12-26T03:34:24.486Z,4.10
2018-12-26T03:35:28.027Z,4.10
2018-12-26T03:36:31.570Z,4.10
2018-12-26T03:37:35.110Z,4.10
2018-12-26T03:38:38.647Z,4.10
2018-12-26T03:39:42.294Z,4.10
2018-12-26T03:40:46.078Z,4.10
2018-12-26T03:41:49.650Z,4.10
2018-12-26T03:42:53.191Z,4.10
2018-12-26T03:43:56.862Z,4.10
2018-12-26T03:45:02.023Z,4.10
2018-12-26T03:46:06.707Z,4.10
2018-12-26T03:47:10.252Z,4.10
2018-12-26T03:48:15.174Z,4.00
2018-12-26T03:49:18.743Z,4.00
2018-12-26T03:50:22.390Z,4.00
2018-12-26T03:51:25.935Z,4.00
2018-12-26T03:52:29.550Z,4.00
2018-12-26T03:53:33.367Z,4.00
2018-12-26T03:54:36.906Z,4.00
2018-12-26T03:55:40.578Z,4.00
2018-12-26T03:56:44.109Z,4.10
2018-12-26T03:57:47.829Z,4.10
2018-12-26T03:58:51.362Z,4.00
2018-12-26T03:59:54.954Z,4.00
2018-12-26T04:00:58.635Z,4.10
2018-12-26T04:02:02.170Z,4.00
2018-12-26T04:03:05.714Z,4.00
2018-12-26T04:04:09.255Z,4.00
2018-12-26T04:05:12.847Z,4.00
2018-12-26T04:06:16.389Z,4.10
2018-12-26T04:07:19.998Z,4.00
2018-12-26T04:08:23.678Z,4.00
2018-12-26T04:09:27.221Z,4.00
2018-12-26T04:10:30.803Z,4.00
2018-12-26T04:11:34.390Z,4.00
2018-12-26T04:12:38.071Z,3.90
2018-12-26T04:13:41.610Z,3.90
2018-12-26T04:14:45.232Z,3.90
2018-12-26T04:15:49.013Z,3.90
2018-12-26T04:16:52.590Z,4.00
2018-12-26T04:17:56.131Z,4.00
2018-12-26T04:18:59.810Z,4.00
2018-12-26T04:20:03.484Z,4.00
2018-12-26T04:21:07.135Z,4.10
2018-12-26T04:22:10.747Z,4.00
2018-12-26T04:23:14.287Z,4.10
2018-12-26T04:24:17.907Z,4.10
2018-12-26T04:25:21.447Z,4.10
2018-12-26T04:26:25.030Z,4.10
2018-12-26T04:27:28.574Z,4.10
2018-12-26T04:28:32.120Z,4.10
2018-12-26T04:29:35.651Z,4.10
2018-12-26T04:30:39.227Z,4.10
2018-12-26T04:31:42.762Z,4.00
2018-12-26T04:32:46.282Z,4.00
2018-12-26T04:33:49.817Z,4.00
2018-12-26T04:34:53.365Z,4.00
2018-12-26T04:35:56.903Z,4.00
2018-12-26T04:37:00.443Z,4.00
2018-12-26T04:38:03.934Z,4.00
2018-12-26T04:39:07.483Z,4.00
2018-12-26T04:40:11.077Z,4.00
2018-12-26T04:41:14.614Z,4.00
2018-12-26T04:42:18.085Z,4.00
2018-12-26T04:43:21.617Z,4.10
2018-12-26T04:44:25.197Z,4.10
2018-12-26T04:45:28.746Z,4.10
2018-12-26T04:46:32.282Z,4.00
2018-12-26T04:47:35.821Z,4.00
2018-12-26T04:48:39.373Z,4.00
2018-12-26T04:49:42.942Z,4.00
2018-12-26T04:50:46.518Z,4.00
2018-12-26T04:51:50.127Z,4.00
2018-12-26T04:52:53.743Z,4.00
2018-12-26T04:53:57.324Z,4.00
2018-12-26T04:55:00.863Z,4.00
2018-12-26T04:56:04.397Z,3.90
2018-12-26T04:57:07.910Z,3.90
2018-12-26T04:58:11.447Z,4.00
2018-12-26T04:59:14.914Z,4.00
2018-12-26T05:00:18.491Z,4.00
2018-12-26T05:01:22.034Z,4.00
2018-12-26T05:02:25.721Z,4.10
2018-12-26T05:03:29.348Z,4.00
2018-12-26T05:04:32.891Z,4.00
2018-12-26T05:05:36.434Z,4.00
2018-12-26T05:06:39.977Z,4.00
2018-12-26T05:07:43.553Z,4.00
2018-12-26T05:08:47.095Z,4.00
2018-12-26T05:09:50.564Z,4.00
2018-12-26T05:10:54.153Z,4.00
2018-12-26T05:11:57.724Z,4.00
2018-12-26T05:13:01.299Z,4.10
2018-12-26T05:14:04.923Z,4.00
2018-12-26T05:15:08.464Z,4.10
2018-12-26T05:16:12.006Z,4.00
2018-12-26T05:17:15.546Z,4.00
2018-12-26T05:18:19.190Z,4.00
2018-12-26T05:19:22.739Z,4.00
2018-12-26T05:20:26.276Z,3.90
2018-12-26T05:21:29.818Z,4.00
2018-12-26T05:22:33.290Z,4.00
2018-12-26T05:23:36.875Z,4.00
2018-12-26T05:24:40.590Z,4.00
2018-12-26T05:25:44.127Z,4.00
2018-12-26T05:26:47.738Z,3.90
2018-12-26T05:27:51.328Z,3.90
2018-12-26T05:28:54.859Z,3.90
2018-12-26T05:29:58.443Z,3.90
2018-12-26T05:31:01.995Z,3.90
2018-12-26T05:32:05.534Z,3.90
2018-12-26T05:33:09.113Z,3.90
2018-12-26T05:34:12.654Z,3.90
2018-12-26T05:35:16.198Z,3.90
2018-12-26T05:36:19.742Z,3.80
2018-12-26T05:37:23.321Z,3.90
2018-12-26T05:38:26.862Z,3.90
2018-12-26T05:39:30.443Z,3.90
2018-12-26T05:40:33.998Z,3.90
2018-12-26T05:41:37.554Z,3.90
2018-12-26T05:42:41.099Z,3.90
2018-12-26T05:43:44.648Z,3.90
2018-12-26T05:44:48.230Z,3.90
2018-12-26T05:45:51.770Z,3.90
2018-12-26T05:46:55.310Z,3.80
2018-12-26T05:47:58.890Z,3.80
2018-12-26T05:49:02.474Z,3.70
2018-12-26T05:50:06.018Z,3.70
2018-12-26T05:51:09.569Z,3.70
2018-12-26T05:52:13.102Z,3.70
2018-12-26T05:53:16.575Z,3.80
2018-12-26T05:54:20.082Z,3.80
2018-12-26T05:55:23.627Z,3.80
2018-12-26T05:56:27.174Z,3.80
2018-12-26T05:57:30.678Z,3.80
2018-12-26T05:58:34.258Z,3.80
2018-12-26T05:59:37.732Z,3.80
2018-12-26T06:00:41.274Z,3.80
2018-12-26T06:01:44.857Z,3.90
2018-12-26T06:02:48.386Z,3.90
2018-12-26T06:03:51.967Z,3.90
2018-12-26T06:04:55.510Z,3.90
2018-12-26T06:05:59.060Z,3.90
2018-12-26T06:07:02.602Z,3.90
2018-12-26T06:08:06.410Z,3.90
2018-12-26T06:09:09.992Z,3.90
2018-12-26T06:10:13.652Z,3.80
2018-12-26T06:11:17.155Z,3.80
2018-12-26T06:12:20.708Z,3.80
2018-12-26T06:13:24.251Z,3.90
2018-12-26T06:14:27.797Z,3.90
2018-12-26T06:15:31.382Z,3.90
2018-12-26T06:16:34.851Z,3.90
2018-12-26T06:17:38.394Z,3.90
2018-12-26T06:18:41.934Z,3.90
2018-12-26T06:19:45.501Z,3.90
2018-12-26T06:20:48.974Z,3.90
2018-12-26T06:21:52.518Z,3.90
2018-12-26T06:22:56.062Z,3.90
2018-12-26T06:23:59.637Z,3.90
2018-12-26T06:25:03.192Z,3.90
2018-12-26T06:26:06.733Z,3.90
2018-12-26T06:27:10.274Z,3.90
2018-12-26T06:28:13.824Z,3.90
2018-12-26T06:29:17.414Z,3.90
2018-12-26T06:30:20.960Z,3.90
2018-12-26T06:31:24.498Z,3.90
2018-12-26T06:32:28.082Z,3.90
2018-12-26T06:33:31.622Z,3.90
2018-12-26T06:34:35.095Z,3.90
2018-12-26T06:35:38.636Z,3.90
2018-12-26T06:36:42.175Z,3.90
2018-12-26T06:37:45.753Z,3.90
2018-12-26T06:38:49.291Z,3.90
2018-12-26T06:39:52.841Z,3.90
2018-12-26T06:40:56.386Z,3.90
2018-12-26T06:41:59.966Z,3.90
2018-12-26T06:43:03.540Z,3.90
2018-12-26T06:44:07.082Z,3.90
2018-12-26T06:45:10.658Z,3.90
2018-12-26T06:46:14.123Z,3.90
2018-12-26T06:47:17.662Z,3.90
2018-12-26T06:48:21.169Z,3.80
2018-12-26T06:49:24.710Z,3.80
2018-12-26T06:50:28.255Z,3.80
2018-12-26T06:51:31.798Z,3.80
2018-12-26T06:52:35.262Z,3.80
2018-12-26T06:53:38.778Z,3.80
2018-12-26T06:54:42.375Z,3.80
2018-12-26T06:55:45.963Z,3.80
2018-12-26T06:56:49.505Z,3.80
2018-12-26T06:58:00.032Z,3.80
2018-12-26T06:58:58.234Z,3.80
2018-12-26T07:00:01.783Z,3.70
2018-12-26T07:01:05.362Z,3.70
2018-12-26T07:02:08.901Z,3.70
2018-12-26T07:03:12.450Z,3.70
2018-12-26T07:04:16.022Z,3.70
2018-12-26T07:05:19.569Z,3.70
2018-12-26T07:06:23.147Z,3.70
2018-12-26T07:07:26.698Z,3.70
2018-12-26T07:08:30.254Z,3.70
2018-12-26T07:09:33.798Z,3.70
2018-12-26T07:10:37.378Z,3.70
2018-12-26T07:11:40.919Z,3.70
2018-12-26T07:12:44.507Z,3.70
2018-12-26T07:13:48.090Z,3.70
2018-12-26T07:14:51.634Z,3.80
2018-12-26T07:15:55.178Z,3.70
2018-12-26T07:16:58.718Z,3.70
2018-12-26T07:18:02.272Z,3.80
2018-12-26T07:19:05.843Z,3.80
2018-12-26T07:20:09.386Z,3.80
2018-12-26T07:21:12.962Z,3.80
2018-12-26T07:22:16.508Z,3.80
2018-12-26T07:23:20.059Z,3.80
2018-12-26T07:24:23.602Z,3.80
2018-12-26T07:25:27.181Z,3.80
2018-12-26T07:26:30.704Z,3.80
2018-12-26T07:27:34.234Z,3.70
2018-12-26T07:28:37.778Z,3.80
2018-12-26T07:29:41.247Z,3.80
2018-12-26T07:30:44.796Z,3.70
2018-12-26T07:31:48.383Z,3.80
2018-12-26T07:32:51.931Z,3.70
2018-12-26T07:33:55.480Z,3.70
2018-12-26T07:34:59.022Z,3.70
2018-12-26T07:36:02.564Z,3.70
2018-12-26T07:37:06.147Z,3.70
2018-12-26T07:38:09.698Z,3.70
2018-12-26T07:39:13.246Z,3.70
2018-12-26T07:40:16.721Z,3.70
2018-12-26T07:41:20.267Z,3.70
2018-12-26T07:42:23.842Z,3.70
2018-12-26T07:43:27.306Z,3.70
2018-12-26T07:44:30.862Z,3.70
2018-12-26T07:45:34.415Z,3.60
2018-12-26T07:46:37.999Z,3.60
2018-12-26T07:47:41.538Z,3.60
2018-12-26T07:48:45.136Z,3.60
2018-12-26T07:49:48.667Z,3.60
2018-12-26T07:50:52.134Z,3.60
2018-12-26T07:51:55.691Z,3.60
2018-12-26T07:52:59.231Z,3.50
2018-12-26T07:54:02.909Z,3.50
2018-12-26T07:55:06.455Z,3.60
2018-12-26T07:56:09.999Z,3.60
2018-12-26T07:57:13.587Z,3.60
2018-12-26T07:58:17.727Z,3.60
2018-12-26T07:59:21.482Z,3.60
2018-12-26T08:00:25.039Z,3.60
2018-12-26T08:01:28.589Z,3.60
2018-12-26T08:02:32.174Z,3.60
2018-12-26T08:03:35.721Z,3.70
2018-12-26T08:04:39.266Z,3.70
2018-12-26T08:05:42.735Z,3.70
2018-12-26T08:06:46.282Z,3.70
2018-12-26T08:07:50.024Z,3.70
2018-12-26T08:08:53.566Z,3.70
2018-12-26T08:09:57.110Z,3.70
2018-12-26T08:11:00.654Z,3.70
2018-12-26T08:12:04.202Z,3.70
2018-12-26T08:13:07.787Z,3.80
2018-12-26T08:14:11.258Z,3.80
2018-12-26T08:15:14.834Z,3.70
2018-12-26T08:16:18.382Z,3.70
2018-12-26T08:17:21.932Z,3.70
2018-12-26T08:18:25.530Z,3.70
2018-12-26T08:19:29.078Z,3.80
2018-12-26T08:20:32.618Z,3.80
2018-12-26T08:21:36.193Z,3.80
2018-12-26T08:22:39.740Z,3.80
2018-12-26T08:23:43.287Z,3.80
2018-12-26T08:24:46.830Z,3.80
2018-12-26T08:25:50.298Z,3.80
2018-12-26T08:26:53.880Z,3.80
2018-12-26T08:27:57.426Z,3.80
2018-12-26T08:29:00.904Z,3.80
2018-12-26T08:30:04.781Z,3.80
2018-12-26T08:31:08.366Z,3.80
2018-12-26T08:32:11.834Z,3.80
2018-12-26T08:33:15.705Z,3.80
2018-12-26T08:34:19.246Z,3.80
2018-12-26T08:35:22.800Z,3.70
2018-12-26T08:36:26.341Z,3.80
2018-12-26T08:37:29.925Z,3.80
2018-12-26T08:38:33.471Z,3.70
2018-12-26T08:39:37.009Z,3.70
2018-12-26T08:40:40.554Z,3.70
2018-12-26T08:41:44.098Z,3.70
2018-12-26T08:42:47.682Z,3.70
2018-12-26T08:43:51.230Z,3.70
2018-12-26T08:44:54.706Z,3.70
2018-12-26T08:45:58.259Z,3.70
2018-12-26T08:47:01.802Z,3.70
2018-12-26T08:48:05.386Z,3.80
2018-12-26T08:49:08.862Z,3.80
2018-12-26T08:50:12.455Z,3.80
2018-12-26T08:51:15.993Z,3.70
2018-12-26T08:52:19.469Z,3.70
2018-12-26T08:53:23.012Z,3.70
2018-12-26T08:54:26.555Z,3.80
2018-12-26T08:55:30.139Z,3.70
2018-12-26T08:56:33.714Z,3.70
2018-12-26T08:57:37.275Z,3.70
2018-12-26T08:58:40.815Z,3.70
2018-12-26T08:59:44.894Z,3.80
2018-12-26T09:00:48.422Z,3.80
2018-12-26T09:01:51.997Z,3.80
2018-12-26T09:02:55.469Z,3.70
2018-12-26T09:03:59.016Z,3.70
2018-12-26T09:05:02.562Z,3.70
2018-12-26T09:06:06.146Z,3.80
2018-12-26T09:07:09.691Z,3.80
2018-12-26T09:08:13.239Z,3.80
2018-12-26T09:09:16.782Z,3.80
2018-12-26T09:10:20.254Z,3.80
2018-12-26T09:11:23.842Z,3.80
2018-12-26T09:12:27.318Z,3.80
2018-12-26T09:13:30.865Z,3.70
2018-12-26T09:14:34.402Z,3.80
2018-12-26T09:15:37.874Z,3.70
2018-12-26T09:16:41.386Z,3.80
2018-12-26T09:17:44.930Z,3.80
2018-12-26T09:18:48.474Z,3.80
2018-12-26T09:19:52.023Z,3.70
2018-12-26T09:20:55.572Z,3.70
2018-12-26T09:21:59.150Z,3.70
2018-12-26T09:23:02.701Z,3.60
2018-12-26T09:24:06.179Z,3.60
2018-12-26T09:25:09.767Z,3.60
2018-12-26T09:26:13.667Z,3.60
2018-12-26T09:27:17.249Z,3.60
2018-12-26T09:28:20.801Z,3.60
2018-12-26T09:29:24.357Z,3.60
2018-12-26T09:30:27.898Z,3.60
2018-12-26T09:31:31.484Z,3.50
2018-12-26T09:32:35.102Z,3.60
2018-12-26T09:33:38.647Z,3.60
2018-12-26T09:34:42.198Z,3.60
2018-12-26T09:35:45.691Z,3.50
2018-12-26T09:36:49.275Z,3.50
2018-12-26T09:37:52.826Z,3.50
2018-12-26T09:38:56.362Z,3.50
2018-12-26T09:39:59.874Z,3.50
2018-12-26T09:41:03.423Z,3.40
2018-12-26T09:42:07.068Z,3.40
2018-12-26T09:43:10.664Z,3.40
2018-12-26T09:44:14.391Z,3.40
2018-12-26T09:45:18.012Z,3.40
2018-12-26T09:46:21.696Z,3.50
2018-12-26T09:47:25.307Z,3.60
2018-12-26T09:48:30.762Z,3.60
2018-12-26T09:49:34.376Z,3.70
2018-12-26T09:50:38.017Z,3.70
2018-12-26T09:51:41.732Z,3.80
2018-12-26T09:52:45.344Z,3.80
2018-12-26T09:53:49.008Z,3.80
2018-12-26T09:54:52.631Z,3.80
2018-12-26T09:55:56.241Z,3.80
2018-12-26T09:57:00.002Z,3.80
2018-12-26T09:58:03.831Z,3.80
2018-12-26T09:59:07.436Z,3.80
2018-12-26T10:00:11.116Z,3.80
2018-12-26T10:01:14.724Z,3.70
2018-12-26T10:02:18.393Z,3.80
2018-12-26T10:03:22.085Z,3.80
2018-12-26T10:04:25.688Z,3.70
2018-12-26T10:05:29.298Z,3.70
2018-12-26T10:06:32.899Z,3.70
2018-12-26T10:07:37.117Z,3.80
2018-12-26T10:08:40.798Z,3.80
2018-12-26T10:09:44.710Z,3.80
2018-12-26T10:10:48.301Z,3.80
2018-12-26T10:11:51.848Z,3.70
2018-12-26T10:12:55.403Z,3.80
2018-12-26T10:13:58.950Z,3.70
2018-12-26T10:15:02.527Z,3.70
2018-12-26T10:16:06.080Z,3.60
2018-12-26T10:17:09.622Z,3.60
2018-12-26T10:18:13.186Z,3.60
2018-12-26T10:19:16.728Z,3.50
2018-12-26T10:20:20.309Z,3.60
2018-12-26T10:21:23.783Z,3.50
2018-12-26T10:22:27.326Z,3.50
2018-12-26T10:23:30.842Z,3.50
2018-12-26T10:24:34.387Z,3.50
2018-12-26T10:25:37.930Z,3.40
2018-12-26T10:26:41.470Z,3.50
2018-12-26T10:27:45.014Z,3.60
2018-12-26T10:28:48.975Z,3.60
2018-12-26T10:29:52.523Z,3.60
2018-12-26T10:30:56.077Z,3.70
2018-12-26T10:31:59.569Z,3.70
2018-12-26T10:33:03.039Z,3.70
2018-12-26T10:34:06.621Z,3.70
2018-12-26T10:35:10.171Z,3.60
2018-12-26T10:36:13.764Z,3.60
2018-12-26T10:37:17.310Z,3.60
2018-12-26T10:38:20.854Z,3.70
2018-12-26T10:39:24.331Z,3.70
2018-12-26T10:40:27.874Z,3.70
2018-12-26T10:41:31.380Z,3.70
2018-12-26T10:42:34.926Z,3.70
2018-12-26T10:43:38.507Z,3.80
2018-12-26T10:44:42.050Z,3.80
2018-12-26T10:45:45.598Z,3.80
2018-12-26T10:46:49.144Z,3.80
2018-12-26T10:47:52.742Z,3.80
2018-12-26T10:48:56.282Z,3.90
2018-12-26T10:49:59.829Z,3.90
2018-12-26T10:51:03.338Z,3.90
2018-12-26T10:52:06.882Z,4.00
2018-12-26T10:53:10.421Z,4.00
2018-12-26T10:54:13.890Z,4.00
2018-12-26T10:55:17.439Z,4.10
2018-12-26T10:56:21.028Z,4.10
2018-12-26T10:57:24.575Z,4.00
2018-12-26T10:58:28.118Z,4.00
2018-12-26T10:59:31.658Z,4.00
2018-12-26T11:00:35.298Z,4.00
2018-12-26T11:01:38.891Z,4.00
2018-12-26T11:02:42.434Z,3.90
2018-12-26T11:03:45.902Z,3.90
2018-12-26T11:04:49.446Z,3.90
2018-12-26T11:05:53.003Z,3.90
2018-12-26T11:06:56.582Z,3.90
2018-12-26T11:08:00.129Z,3.90
2018-12-26T11:09:06.334Z,3.90
2018-12-26T11:10:09.878Z,3.80
2018-12-26T11:11:13.470Z,3.80
2018-12-26T11:12:17.014Z,3.80
2018-12-26T11:13:20.498Z,3.80
2018-12-26T11:14:24.044Z,3.70
2018-12-26T11:15:27.592Z,3.70
2018-12-26T11:16:31.252Z,3.80
2018-12-26T11:17:35.173Z,3.90
2018-12-26T11:18:38.819Z,4.00
2018-12-26T11:19:42.550Z,4.00
2018-12-26T11:20:46.241Z,4.10
2018-12-26T11:21:49.885Z,4.00
2018-12-26T11:22:53.462Z,4.10
2018-12-26T11:23:57.024Z,4.10
2018-12-26T11:25:00.570Z,4.10
2018-12-26T11:26:04.087Z,4.00
2018-12-26T11:27:07.688Z,4.00
2018-12-26T11:28:11.218Z,3.90
2018-12-26T11:29:18.480Z,3.90
2018-12-26T11:30:19.970Z,3.90
2018-12-26T11:31:23.521Z,4.00
2018-12-26T11:32:27.100Z,4.00
2018-12-26T11:33:30.785Z,4.00
2018-12-26T11:34:34.325Z,4.00
2018-12-26T11:35:37.838Z,4.10
2018-12-26T11:36:41.454Z,4.10
2018-12-26T11:37:45.079Z,4.00
2018-12-26T11:38:48.698Z,4.00
2018-12-26T11:39:52.166Z,4.00
2018-12-26T11:40:55.739Z,4.10
2018-12-26T11:41:59.359Z,4.10
2018-12-26T11:43:02.902Z,4.20
2018-12-26T11:44:06.490Z,4.20
2018-12-26T11:45:10.029Z,4.20
2018-12-26T11:46:13.589Z,4.20
2018-12-26T11:47:17.130Z,4.20
2018-12-26T11:48:20.648Z,4.20
2018-12-26T11:49:24.200Z,4.20
2018-12-26T11:50:27.738Z,4.20
2018-12-26T11:51:31.314Z,4.30
2018-12-26T11:52:34.858Z,4.30
2018-12-26T11:53:38.530Z,4.30
2018-12-26T11:54:42.074Z,4.30
2018-12-26T11:55:46.003Z,4.30
2018-12-26T11:56:49.551Z,4.30
2018-12-26T11:57:53.101Z,4.30
2018-12-26T11:58:56.691Z,4.30
2018-12-26T12:00:00.236Z,4.30
2018-12-26T12:01:03.775Z,4.20
2018-12-26T12:02:07.242Z,4.30
2018-12-26T12:03:12.326Z,4.20
2018-12-26T12:04:15.906Z,4.20
2018-12-26T12:05:19.516Z,4.20
2018-12-26T12:06:23.057Z,4.20
2018-12-26T12:07:26.593Z,4.20
2018-12-26T12:08:30.170Z,4.20
2018-12-26T12:09:33.714Z,4.20
2018-12-26T12:10:37.301Z,4.20
2018-12-26T12:11:40.774Z,4.20
2018-12-26T12:12:44.324Z,4.30
2018-12-26T12:13:47.937Z,4.20
2018-12-26T12:14:51.559Z,4.10
2018-12-26T12:15:55.213Z,4.10
2018-12-26T12:16:58.681Z,4.00
2018-12-26T12:18:02.226Z,4.00
2018-12-26T12:19:05.766Z,4.00
2018-12-26T12:20:10.353Z,4.00
2018-12-26T12:21:13.866Z,4.00
2018-12-26T12:22:17.410Z,4.00
2018-12-26T12:23:20.890Z,4.00
2018-12-26T12:24:24.433Z,4.10
2018-12-26T12:25:27.991Z,4.00
2018-12-26T12:26:31.572Z,4.10
2018-12-26T12:27:35.114Z,4.10
2018-12-26T12:28:38.666Z,4.00
2018-12-26T12:29:42.212Z,4.10
2018-12-26T12:30:45.763Z,4.20
2018-12-26T12:31:49.354Z,4.20
2018-12-26T12:32:52.910Z,4.30
2018-12-26T12:33:56.377Z,4.30
2018-12-26T12:34:59.921Z,4.40
2018-12-26T12:36:03.572Z,4.40
2018-12-26T12:37:07.132Z,4.40
2018-12-26T12:38:10.673Z,4.40
2018-12-26T12:39:14.241Z,4.40
2018-12-26T12:40:17.778Z,4.40
2018-12-26T12:41:21.318Z,4.40
2018-12-26T12:42:24.927Z,4.40
2018-12-26T12:43:28.466Z,4.40
2018-12-26T12:44:32.351Z,4.50
2018-12-26T12:45:35.830Z,4.60
2018-12-26T12:46:39.452Z,4.60
2018-12-26T12:47:43.039Z,4.60
2018-12-26T12:48:46.585Z,4.60
2018-12-26T12:49:50.053Z,4.60
2018-12-26T12:50:53.602Z,4.60
2018-12-26T12:51:57.150Z,4.60
2018-12-26T12:53:00.818Z,4.50
2018-12-26T12:54:04.365Z,4.50
2018-12-26T12:55:07.914Z,4.40
2018-12-26T12:56:12.158Z,4.50
2018-12-26T12:57:15.911Z,4.40
2018-12-26T12:58:19.498Z,4.40
2018-12-26T12:59:23.050Z,4.50
2018-12-26T13:00:26.519Z,4.50
2018-12-26T13:01:29.989Z,4.40
2018-12-26T13:02:33.541Z,4.30
2018-12-26T13:03:37.127Z,4.30
2018-12-26T13:04:40.674Z,4.30
2018-12-26T13:05:44.218Z,4.30
2018-12-26T13:06:47.686Z,4.30
2018-12-26T13:07:51.154Z,4.30
2018-12-26T13:08:54.742Z,4.40
2018-12-26T13:09:58.307Z,4.40
2018-12-26T13:11:01.859Z,4.30
2018-12-26T13:12:05.405Z,4.30
2018-12-26T13:13:08.950Z,4.30
2018-12-26T13:14:12.598Z,4.30
2018-12-26T13:15:16.184Z,4.30
2018-12-26T13:16:19.726Z,4.30
2018-12-26T13:17:23.196Z,4.30
2018-12-26T13:18:26.746Z,4.40
2018-12-26T13:19:31.154Z,4.30
2018-12-26T13:20:34.774Z,4.40
2018-12-26T13:21:38.241Z,4.40
2018-12-26T13:22:41.786Z,4.50
2018-12-26T13:23:45.330Z,4.50
2018-12-26T13:24:48.806Z,4.50
2018-12-26T13:25:52.399Z,4.50
2018-12-26T13:26:55.951Z,4.40
2018-12-26T13:27:59.496Z,4.40
2018-12-26T13:29:03.037Z,4.40
2018-12-26T13:30:09.296Z,4.40
2018-12-26T13:31:12.884Z,4.40
2018-12-26T13:32:16.454Z,4.40
2018-12-26T13:33:20.005Z,4.50
2018-12-26T13:34:23.543Z,4.50
2018-12-26T13:35:27.103Z,4.50
2018-12-26T13:36:30.674Z,4.50
2018-12-26T13:37:42.553Z,4.50
2018-12-26T13:38:46.207Z,4.40
2018-12-26T13:39:49.756Z,4.30
2018-12-26T13:40:53.300Z,4.30
2018-12-26T13:41:56.874Z,4.30
2018-12-26T13:43:00.423Z,4.30
2018-12-26T13:44:03.970Z,4.30
2018-12-26T13:45:07.790Z,4.30
2018-12-26T13:46:11.367Z,4.40
2018-12-26T13:47:14.916Z,4.50
2018-12-26T13:48:18.461Z,4.50
2018-12-26T13:49:22.003Z,4.60
2018-12-26T13:50:25.478Z,4.60
2018-12-26T13:51:29.051Z,4.60
2018-12-26T13:52:32.596Z,4.70
2018-12-26T13:53:36.176Z,4.60
2018-12-26T13:54:39.718Z,4.60
2018-12-26T13:55:43.262Z,4.60
2018-12-26T13:56:46.850Z,4.60
2018-12-26T13:57:50.326Z,4.70
2018-12-26T13:58:53.870Z,4.70
2018-12-26T14:00:02.285Z,4.70
2018-12-26T14:01:02.610Z,4.70
2018-12-26T14:02:06.209Z,4.70
2018-12-26T14:03:09.753Z,4.80
2018-12-26T14:04:13.300Z,4.70
2018-12-26T14:05:16.839Z,4.80
2018-12-26T14:06:20.315Z,4.80